Time,TemperatureF,DewpointF,PressureIn,WindDirection,WindDirectionDegrees,WindSpeedMPH,WindSpeedGustMPH,Humidity,HourlyPrecipIn,Conditions,Clouds,dailyrainin,SoftwareType,DateUTC
2013-03-21 00:00:00,12.1,1.9,30.14,West,279,1.0,1.0,63,0.00,,,0.00,Wunderground v.1.15,2013-03-21 05:00:00,
2013-03-21 00:30:00,11.6,1.4,30.13,West,279,0.0,0.0,63,0.00,,,0.00,Wunderground v.1.15,2013-03-21 05:30:00,
2013-03-21 01:00:00,9.7,0.6,30.13,West,279,1.0,1.0,66,0.00,,,0.00,Wunderground v.1.15,2013-03-21 06:00:00,
2013-03-21 01:30:00,8.6,0.5,30.13,West,279,0.0,0.0,69,0.00,,,0.00,Wunderground v.1.15,2013-03-21 06:30:00,
2013-03-21 02:00:00,7.6,0.5,30.13,West,279,2.0,4.0,72,0.00,,,0.00,Wunderground v.1.15,2013-03-21 07:00:00,
2013-03-21 02:30:00,6.1,-1.0,30.13,West,279,0.0,0.0,72,0.00,,,0.00,Wunderground v.1.15,2013-03-21 07:30:00,
2013-03-21 03:00:00,6.0,-0.8,30.13,West,279,2.0,2.0,73,0.00,,,0.00,Wunderground v.1.15,2013-03-21 08:00:00,
2013-03-21 03:30:00,4.8,-1.7,30.11,West,279,1.0,1.0,74,0.00,,,0.00,Wunderground v.1.15,2013-03-21 08:30:00,
2013-03-21 04:00:00,4.1,-2.4,30.11,West,279,0.0,0.0,74,0.00,,,0.00,Wunderground v.1.15,2013-03-21 09:00:00,
2013-03-21 04:30:00,3.4,-3.0,30.11,West,279,0.0,1.0,74,0.00,,,0.00,Wunderground v.1.15,2013-03-21 09:30:00,
2013-03-21 05:00:00,2.6,-4.1,30.10,West,279,0.0,0.0,73,0.00,,,0.00,Wunderground v.1.15,2013-03-21 10:00:00,
2013-03-21 05:30:00,2.2,-3.9,30.11,West,279,0.0,1.0,75,0.00,,,0.00,Wunderground v.1.15,2013-03-21 10:30:00,
2013-03-21 06:00:00,2.6,-3.2,30.12,West,279,1.0,1.0,76,0.00,,,0.00,Wunderground v.1.15,2013-03-21 11:00:00,
2013-03-21 06:30:00,3.2,-2.9,30.12,West,279,2.0,2.0,75,0.00,,,0.00,Wunderground v.1.15,2013-03-21 11:30:00,
2013-03-21 07:00:00,2.6,-3.5,30.13,West,279,0.0,1.0,75,0.00,,,0.00,Wunderground v.1.15,2013-03-21 12:00:00,
2013-03-21 07:30:00,3.2,-2.9,30.14,West,279,3.0,3.0,75,0.00,,,0.00,Wunderground v.1.15,2013-03-21 12:30:00,
2013-03-21 08:00:00,3.9,-2.5,30.14,West,279,2.0,2.0,74,0.00,,,0.00,Wunderground v.1.15,2013-03-21 13:00:00,
2013-03-21 08:30:00,5.6,-1.5,30.13,West,279,2.0,2.0,72,0.00,,,0.00,Wunderground v.1.15,2013-03-21 13:30:00,
2013-03-21 09:00:00,7.4,-0.3,30.12,West,279,1.0,1.0,70,0.00,,,0.00,Wunderground v.1.15,2013-03-21 14:00:00,
2013-03-21 09:30:00,8.3,-0.1,30.11,SW,234,4.0,5.0,68,0.00,,,0.00,Wunderground v.1.15,2013-03-21 14:30:00,
2013-03-21 10:00:00,11.4,2.2,30.10,West,261,2.0,2.0,66,0.00,,,0.00,Wunderground v.1.15,2013-03-21 15:00:00,
2013-03-21 10:30:00,13.8,3.2,30.10,NW,313,2.0,2.0,62,0.00,,,0.00,Wunderground v.1.15,2013-03-21 15:30:00,
2013-03-21 11:00:00,16.2,3.6,30.10,WNW,299,3.0,8.0,57,0.00,,,0.00,Wunderground v.1.15,2013-03-21 16:00:00,
2013-03-21 11:30:00,17.0,3.6,30.10,NW,310,6.0,6.0,55,0.00,,,0.00,Wunderground v.1.15,2013-03-21 16:30:00,
2013-03-21 12:00:00,17.7,3.8,30.11,NNW,337,7.0,7.0,54,0.00,,,0.00,Wunderground v.1.15,2013-03-21 17:00:00,
2013-03-21 12:30:00,19.2,4.4,30.11,West,262,6.0,6.0,52,0.00,,,0.00,Wunderground v.1.15,2013-03-21 17:30:00,
2013-03-21 13:00:00,18.9,4.6,30.11,NW,319,5.0,5.0,53,0.00,,,0.00,Wunderground v.1.15,2013-03-21 18:00:00,
2013-03-21 13:30:00,20.0,4.7,30.10,WNW,298,3.0,3.0,51,0.00,,,0.00,Wunderground v.1.15,2013-03-21 18:30:00,
2013-03-21 14:00:00,20.5,4.8,30.09,NW,308,5.0,5.0,50,0.00,,,0.00,Wunderground v.1.15,2013-03-21 19:00:00,
2013-03-21 14:30:00,22.7,5.9,30.09,WSW,246,3.0,4.0,48,0.00,,,0.00,Wunderground v.1.15,2013-03-21 19:30:00,
2013-03-21 15:00:00,21.1,4.9,30.08,NW,319,7.0,7.0,49,0.00,,,0.00,Wunderground v.1.15,2013-03-21 20:00:00,
2013-03-21 15:30:00,22.7,5.9,30.08,WSW,252,5.0,5.0,48,0.00,,,0.00,Wunderground v.1.15,2013-03-21 20:30:00,
2013-03-21 16:00:00,23.5,5.7,30.08,WSW,239,5.0,5.0,46,0.00,,,0.00,Wunderground v.1.15,2013-03-21 21:00:00,
2013-03-21 16:30:00,24.4,6.6,30.06,WNW,282,4.0,10.0,46,0.00,,,0.00,Wunderground v.1.15,2013-03-21 21:30:00,
2013-03-21 17:00:00,24.1,6.3,30.06,West,260,4.0,4.0,46,0.00,,,0.00,Wunderground v.1.15,2013-03-21 22:00:00,
2013-03-21 17:30:00,25.1,6.2,30.06,West,259,5.0,5.0,44,0.00,,,0.00,Wunderground v.1.15,2013-03-21 22:30:00,
2013-03-21 18:00:00,24.4,6.1,30.06,NW,307,5.0,5.0,45,0.00,,,0.00,Wunderground v.1.15,2013-03-21 23:00:00,
2013-03-21 18:30:00,25.1,6.7,30.06,West,276,6.0,6.0,45,0.00,,,0.00,Wunderground v.1.15,2013-03-21 23:30:00,
2013-03-21 19:00:00,23.9,6.1,30.06,WNW,284,5.0,5.0,46,0.00,,,0.00,Wunderground v.1.15,2013-03-22 00:00:00,
2013-03-21 19:30:00,23.5,6.7,30.06,West,279,3.0,3.0,48,0.00,,,0.00,Wunderground v.1.15,2013-03-22 00:30:00,
2013-03-21 20:00:00,24.1,7.2,30.06,West,265,5.0,5.0,48,0.00,,,0.00,Wunderground v.1.15,2013-03-22 01:00:00,
2013-03-21 20:30:00,23.3,6.9,30.07,West,264,5.0,7.0,49,0.00,,,0.00,Wunderground v.1.15,2013-03-22 01:30:00,
2013-03-21 21:00:00,22.5,7.5,30.07,West,264,3.0,3.0,52,0.00,,,0.00,Wunderground v.1.15,2013-03-22 02:00:00,
2013-03-21 21:30:00,21.6,7.9,30.07,West,264,2.0,2.0,55,0.00,,,0.00,Wunderground v.1.15,2013-03-22 02:30:00,
2013-03-21 22:00:00,20.3,7.1,30.07,West,264,3.0,4.0,56,0.00,,,0.00,Wunderground v.1.15,2013-03-22 03:00:00,
2013-03-21 22:30:00,19.1,6.7,30.08,WSW,254,5.0,6.0,58,0.00,,,0.00,Wunderground v.1.15,2013-03-22 03:30:00,
2013-03-21 23:00:00,18.3,6.7,30.08,WSW,243,3.0,4.0,60,0.00,,,0.00,Wunderground v.1.15,2013-03-22 04:00:00,
2013-03-21 23:30:00,17.7,6.5,30.08,WSW,244,2.0,2.0,61,0.00,,,0.00,Wunderground v.1.15,2013-03-22 04:30:00,